sensor_id;sensor_type;location;lat;lon;timestamp;P1;durP1;ratioP1;P2;durP2;ratioP2
22017;SDS011;11173;51.050;7.108;2023-12-14T00:08:42;1.67;;;1.58;;
22017;SDS011;11173;51.050;7.108;2023-12-14T00:18:42;1.95;;;1.85;;
22017;SDS011;11173;51.050;7.108;2023-12-14T00:28:43;2.65;;;2.17;;
22017;SDS011;11173;51.050;7.108;2023-12-14T00:38:43;3.88;;;3.53;;
22017;SDS011;11173;51.050;7.108;2023-12-14T00:48:43;3.45;;;3.15;;
22017;SDS011;11173;51.050;7.108;2023-12-14T00:58:43;2.40;;;2.20;;
22017;SDS011;11173;51.050;7.108;2023-12-14T01:08:44;2.63;;;2.42;;
22017;SDS011;11173;51.050;7.108;2023-12-14T01:18:44;2.03;;;1.92;;
22017;SDS011;11173;51.050;7.108;2023-12-14T01:28:44;3.22;;;2.92;;
22017;SDS011;11173;51.050;7.108;2023-12-14T01:38:45;5.25;;;3.90;;
22017;SDS011;11173;51.050;7.108;2023-12-14T01:48:45;7.50;;;6.22;;
22017;SDS011;11173;51.050;7.108;2023-12-14T01:58:45;9.15;;;7.78;;
22017;SDS011;11173;51.050;7.108;2023-12-14T02:08:46;8.23;;;6.63;;
22017;SDS011;11173;51.050;7.108;2023-12-14T02:18:46;12.57;;;8.75;;
22017;SDS011;11173;51.050;7.108;2023-12-14T02:28:46;12.02;;;8.55;;
22017;SDS011;11173;51.050;7.108;2023-12-14T02:38:47;9.00;;;7.25;;
22017;SDS011;11173;51.050;7.108;2023-12-14T02:48:47;9.30;;;8.10;;
22017;SDS011;11173;51.050;7.108;2023-12-14T02:58:47;10.00;;;7.38;;
22017;SDS011;11173;51.050;7.108;2023-12-14T03:08:51;10.27;;;8.10;;
22017;SDS011;11173;51.050;7.108;2023-12-14T03:18:51;9.07;;;7.85;;
22017;SDS011;11173;51.050;7.108;2023-12-14T03:28:53;16.08;;;11.38;;
22017;SDS011;11173;51.050;7.108;2023-12-14T03:38:54;11.68;;;9.77;;
22017;SDS011;11173;51.050;7.108;2023-12-14T03:48:54;7.85;;;7.05;;
22017;SDS011;11173;51.050;7.108;2023-12-14T03:58:54;7.45;;;6.22;;
22017;SDS011;11173;51.050;7.108;2023-12-14T04:08:57;4.60;;;4.10;;
22017;SDS011;11173;51.050;7.108;2023-12-14T04:18:57;3.33;;;3.00;;
22017;SDS011;11173;51.050;7.108;2023-12-14T04:28:57;2.33;;;2.13;;
22017;SDS011;11173;51.050;7.108;2023-12-14T04:38:57;2.63;;;2.42;;
22017;SDS011;11173;51.050;7.108;2023-12-14T04:48:58;7.30;;;6.10;;
22017;SDS011;11173;51.050;7.108;2023-12-14T04:58:58;9.57;;;7.80;;
22017;SDS011;11173;51.050;7.108;2023-12-14T05:08:58;8.88;;;7.45;;
22017;SDS011;11173;51.050;7.108;2023-12-14T05:18:59;10.05;;;8.15;;
22017;SDS011;11173;51.050;7.108;2023-12-14T05:28:59;9.82;;;8.10;;
22017;SDS011;11173;51.050;7.108;2023-12-14T05:38:59;8.30;;;7.05;;
22017;SDS011;11173;51.050;7.108;2023-12-14T05:48:59;6.35;;;5.72;;
22017;SDS011;11173;51.050;7.108;2023-12-14T05:59:00;9.52;;;7.00;;
22017;SDS011;11173;51.050;7.108;2023-12-14T06:09:00;8.55;;;7.47;;
22017;SDS011;11173;51.050;7.108;2023-12-14T06:19:00;6.47;;;5.88;;
22017;SDS011;11173;51.050;7.108;2023-12-14T06:29:00;4.80;;;4.40;;
22017;SDS011;11173;51.050;7.108;2023-12-14T06:39:01;4.13;;;3.72;;
22017;SDS011;11173;51.050;7.108;2023-12-14T06:49:01;5.68;;;5.18;;
22017;SDS011;11173;51.050;7.108;2023-12-14T06:59:02;6.10;;;5.35;;
22017;SDS011;11173;51.050;7.108;2023-12-14T07:09:02;8.10;;;6.95;;
22017;SDS011;11173;51.050;7.108;2023-12-14T07:19:03;9.13;;;6.82;;
22017;SDS011;11173;51.050;7.108;2023-12-14T07:29:03;6.05;;;5.45;;
22017;SDS011;11173;51.050;7.108;2023-12-14T07:39:04;9.05;;;6.85;;
22017;SDS011;11173;51.050;7.108;2023-12-14T07:49:05;9.93;;;8.27;;
22017;SDS011;11173;51.050;7.108;2023-12-14T07:59:06;12.52;;;8.27;;
22017;SDS011;11173;51.050;7.108;2023-12-14T08:09:07;14.27;;;11.13;;
22017;SDS011;11173;51.050;7.108;2023-12-14T08:19:08;14.30;;;10.38;;
22017;SDS011;11173;51.050;7.108;2023-12-14T08:29:08;15.93;;;11.68;;
22017;SDS011;11173;51.050;7.108;2023-12-14T08:39:08;11.80;;;9.65;;
22017;SDS011;11173;51.050;7.108;2023-12-14T08:49:09;7.63;;;6.82;;
22017;SDS011;11173;51.050;7.108;2023-12-14T08:59:10;9.80;;;8.02;;
22017;SDS011;11173;51.050;7.108;2023-12-14T09:09:10;12.88;;;8.88;;
22017;SDS011;11173;51.050;7.108;2023-12-14T09:19:10;9.05;;;6.95;;
22017;SDS011;11173;51.050;7.108;2023-12-14T09:29:10;13.18;;;9.68;;
22017;SDS011;11173;51.050;7.108;2023-12-14T09:39:11;16.10;;;11.55;;
22017;SDS011;11173;51.050;7.108;2023-12-14T09:49:11;18.02;;;11.98;;
22017;SDS011;11173;51.050;7.108;2023-12-14T09:59:12;15.80;;;10.95;;
22017;SDS011;11173;51.050;7.108;2023-12-14T10:09:12;10.15;;;8.05;;
22017;SDS011;11173;51.050;7.108;2023-12-14T10:19:18;6.75;;;5.78;;
22017;SDS011;11173;51.050;7.108;2023-12-14T10:29:20;13.23;;;9.35;;
22017;SDS011;11173;51.050;7.108;2023-12-14T10:39:20;17.67;;;11.85;;
22017;SDS011;11173;51.050;7.108;2023-12-14T10:49:21;14.38;;;11.68;;
22017;SDS011;11173;51.050;7.108;2023-12-14T10:59:21;10.05;;;8.02;;
22017;SDS011;11173;51.050;7.108;2023-12-14T11:09:22;14.80;;;10.90;;
22017;SDS011;11173;51.050;7.108;2023-12-14T11:29:23;15.30;;;11.35;;
22017;SDS011;11173;51.050;7.108;2023-12-14T11:39:23;14.88;;;11.30;;
22017;SDS011;11173;51.050;7.108;2023-12-14T11:49:27;10.75;;;8.80;;
22017;SDS011;11173;51.050;7.108;2023-12-14T11:59:27;15.88;;;12.18;;
22017;SDS011;11173;51.050;7.108;2023-12-14T12:09:43;14.00;;;11.43;;
22017;SDS011;11173;51.050;7.108;2023-12-14T12:19:43;13.38;;;10.77;;
22017;SDS011;11173;51.050;7.108;2023-12-14T12:29:44;13.05;;;10.55;;
22017;SDS011;11173;51.050;7.108;2023-12-14T12:39:44;11.23;;;9.10;;
22017;SDS011;11173;51.050;7.108;2023-12-14T12:49:44;13.77;;;11.32;;
22017;SDS011;11173;51.050;7.108;2023-12-14T12:59:45;12.25;;;9.55;;
22017;SDS011;11173;51.050;7.108;2023-12-14T13:09:45;13.18;;;9.75;;
22017;SDS011;11173;51.050;7.108;2023-12-14T13:19:45;12.38;;;9.63;;
22017;SDS011;11173;51.050;7.108;2023-12-14T13:29:46;9.05;;;7.97;;
22017;SDS011;11173;51.050;7.108;2023-12-14T13:39:46;15.25;;;12.18;;
22017;SDS011;11173;51.050;7.108;2023-12-14T13:49:50;9.20;;;8.23;;
22017;SDS011;11173;51.050;7.108;2023-12-14T13:59:50;7.13;;;6.43;;
22017;SDS011;11173;51.050;7.108;2023-12-14T14:09:51;7.82;;;6.68;;
22017;SDS011;11173;51.050;7.108;2023-12-14T14:19:51;6.28;;;5.65;;
22017;SDS011;11173;51.050;7.108;2023-12-14T14:29:51;5.82;;;5.28;;
22017;SDS011;11173;51.050;7.108;2023-12-14T14:39:54;5.05;;;4.43;;
22017;SDS011;11173;51.050;7.108;2023-12-14T14:49:54;3.25;;;3.00;;
22017;SDS011;11173;51.050;7.108;2023-12-14T15:00:03;5.07;;;4.67;;
22017;SDS011;11173;51.050;7.108;2023-12-14T15:10:04;5.18;;;4.68;;
22017;SDS011;11173;51.050;7.108;2023-12-14T15:20:04;3.13;;;2.92;;
22017;SDS011;11173;51.050;7.108;2023-12-14T15:30:05;3.40;;;3.10;;
22017;SDS011;11173;51.050;7.108;2023-12-14T15:40:06;3.60;;;3.30;;
22017;SDS011;11173;51.050;7.108;2023-12-14T15:50:07;3.90;;;3.60;;
22017;SDS011;11173;51.050;7.108;2023-12-14T16:00:08;5.65;;;5.15;;
22017;SDS011;11173;51.050;7.108;2023-12-14T16:10:09;6.03;;;5.43;;
22017;SDS011;11173;51.050;7.108;2023-12-14T16:20:09;5.78;;;5.18;;
22017;SDS011;11173;51.050;7.108;2023-12-14T16:30:10;9.38;;;7.90;;
22017;SDS011;11173;51.050;7.108;2023-12-14T16:40:10;6.45;;;5.78;;
22017;SDS011;11173;51.050;7.108;2023-12-14T16:50:11;8.00;;;7.20;;
22017;SDS011;11173;51.050;7.108;2023-12-14T17:00:12;6.60;;;6.00;;
22017;SDS011;11173;51.050;7.108;2023-12-14T17:10:12;5.13;;;4.63;;
22017;SDS011;11173;51.050;7.108;2023-12-14T17:20:12;4.32;;;4.00;;
22017;SDS011;11173;51.050;7.108;2023-12-14T17:30:13;5.20;;;4.28;;
22017;SDS011;11173;51.050;7.108;2023-12-14T17:40:13;5.85;;;5.35;;
22017;SDS011;11173;51.050;7.108;2023-12-14T17:50:13;7.53;;;6.70;;
22017;SDS011;11173;51.050;7.108;2023-12-14T18:00:14;10.40;;;8.77;;
22017;SDS011;11173;51.050;7.108;2023-12-14T18:10:14;9.05;;;8.13;;
22017;SDS011;11173;51.050;7.108;2023-12-14T18:20:14;8.82;;;7.60;;
22017;SDS011;11173;51.050;7.108;2023-12-14T18:30:15;7.38;;;6.68;;
22017;SDS011;11173;51.050;7.108;2023-12-14T18:40:15;6.05;;;5.55;;
22017;SDS011;11173;51.050;7.108;2023-12-14T18:50:18;7.18;;;6.47;;
22017;SDS011;11173;51.050;7.108;2023-12-14T19:00:18;5.88;;;5.38;;
22017;SDS011;11173;51.050;7.108;2023-12-14T19:10:18;4.00;;;3.60;;
22017;SDS011;11173;51.050;7.108;2023-12-14T19:20:22;6.63;;;5.50;;
22017;SDS011;11173;51.050;7.108;2023-12-14T19:30:22;4.10;;;3.80;;
22017;SDS011;11173;51.050;7.108;2023-12-14T19:40:22;2.10;;;2.00;;
22017;SDS011;11173;51.050;7.108;2023-12-14T19:50:22;1.80;;;1.70;;
22017;SDS011;11173;51.050;7.108;2023-12-14T20:00:23;1.30;;;1.25;;
22017;SDS011;11173;51.050;7.108;2023-12-14T20:10:23;1.67;;;1.58;;
22017;SDS011;11173;51.050;7.108;2023-12-14T20:20:23;1.50;;;1.40;;
22017;SDS011;11173;51.050;7.108;2023-12-14T20:30:23;1.27;;;1.27;;
22017;SDS011;11173;51.050;7.108;2023-12-14T20:40:24;1.50;;;1.40;;
22017;SDS011;11173;51.050;7.108;2023-12-14T20:50:26;6.68;;;6.03;;
22017;SDS011;11173;51.050;7.108;2023-12-14T21:00:29;6.50;;;5.55;;
22017;SDS011;11173;51.050;7.108;2023-12-14T21:10:31;4.22;;;3.83;;
22017;SDS011;11173;51.050;7.108;2023-12-14T21:20:31;2.45;;;2.35;;
22017;SDS011;11173;51.050;7.108;2023-12-14T21:30:32;1.88;;;1.70;;
22017;SDS011;11173;51.050;7.108;2023-12-14T21:40:33;1.40;;;1.30;;
22017;SDS011;11173;51.050;7.108;2023-12-14T21:50:33;1.08;;;1.08;;
22017;SDS011;11173;51.050;7.108;2023-12-14T22:00:33;1.45;;;1.35;;
22017;SDS011;11173;51.050;7.108;2023-12-14T22:10:33;4.55;;;4.13;;
22017;SDS011;11173;51.050;7.108;2023-12-14T22:20:34;3.53;;;3.25;;
22017;SDS011;11173;51.050;7.108;2023-12-14T22:30:34;1.70;;;1.60;;
22017;SDS011;11173;51.050;7.108;2023-12-14T22:40:34;1.23;;;1.23;;
22017;SDS011;11173;51.050;7.108;2023-12-14T22:50:35;1.85;;;1.75;;
22017;SDS011;11173;51.050;7.108;2023-12-14T23:00:35;1.88;;;1.77;;
22017;SDS011;11173;51.050;7.108;2023-12-14T23:10:38;1.92;;;1.83;;
22017;SDS011;11173;51.050;7.108;2023-12-14T23:20:38;2.42;;;1.52;;
22017;SDS011;11173;51.050;7.108;2023-12-14T23:30:39;1.85;;;1.75;;
22017;SDS011;11173;51.050;7.108;2023-12-14T23:40:39;2.40;;;2.20;;
22017;SDS011;11173;51.050;7.108;2023-12-14T23:50:39;1.92;;;1.83;;
